sensor_id;sensor_type;location;lat;lon;timestamp;pressure;altitude;pressure_sealevel;temperature;humidity
8286;BME280;4181;43.416;24.598;2023-02-16T00:00:05;101535.56;;;4.46;100.00
8286;BME280;4181;43.416;24.598;2023-02-16T00:02:30;101530.34;;;4.44;100.00
8286;BME280;4181;43.416;24.598;2023-02-16T00:04:56;101543.81;;;4.52;100.00
8286;BME280;4181;43.416;24.598;2023-02-16T00:07:21;101512.09;;;4.46;100.00
8286;BME280;4181;43.416;24.598;2023-02-16T00:09:47;101518.72;;;4.36;100.00
8286;BME280;4181;43.416;24.598;2023-02-16T00:12:17;101516.19;;;4.42;100.00
8286;BME280;4181;43.416;24.598;2023-02-16T00:15:16;101533.16;;;4.59;100.00
8286;BME280;4181;43.416;24.598;2023-02-16T00:17:42;101537.59;;;4.74;100.00
8286;BME280;4181;43.416;24.598;2023-02-16T00:20:15;101537.06;;;4.79;100.00
8286;BME280;4181;43.416;24.598;2023-02-16T00:22:41;101535.56;;;4.76;100.00
8286;BME280;4181;43.416;24.598;2023-02-16T00:25:07;101540.84;;;4.70;100.00
8286;BME280;4181;43.416;24.598;2023-02-16T00:27:33;101546.84;;;4.80;100.00
8286;BME280;4181;43.416;24.598;2023-02-16T00:29:59;101539.16;;;4.69;100.00
8286;BME280;4181;43.416;24.598;2023-02-16T00:32:25;101546.00;;;4.57;100.00
8286;BME280;4181;43.416;24.598;2023-02-16T00:34:51;101552.22;;;4.57;100.00
8286;BME280;4181;43.416;24.598;2023-02-16T00:37:16;101547.84;;;4.56;100.00
8286;BME280;4181;43.416;24.598;2023-02-16T00:39:43;101539.16;;;4.38;100.00
8286;BME280;4181;43.416;24.598;2023-02-16T00:42:17;101538.00;;;4.33;100.00
8286;BME280;4181;43.416;24.598;2023-02-16T00:44:46;101532.78;;;4.31;100.00
8286;BME280;4181;43.416;24.598;2023-02-16T00:47:29;101537.38;;;4.23;100.00
8286;BME280;4181;43.416;24.598;2023-02-16T00:49:55;101535.75;;;4.06;100.00
8286;BME280;4181;43.416;24.598;2023-02-16T00:52:33;101534.28;;;4.03;100.00
8286;BME280;4181;43.416;24.598;2023-02-16T00:55:01;101524.00;;;3.99;100.00
8286;BME280;4181;43.416;24.598;2023-02-16T00:57:31;101542.19;;;4.05;100.00
8286;BME280;4181;43.416;24.598;2023-02-16T01:00:02;101543.94;;;3.89;100.00
8286;BME280;4181;43.416;24.598;2023-02-16T01:02:30;101528.63;;;3.82;100.00
8286;BME280;4181;43.416;24.598;2023-02-16T01:04:56;101520.69;;;3.80;100.00
8286;BME280;4181;43.416;24.598;2023-02-16T01:07:21;101499.44;;;3.77;100.00
8286;BME280;4181;43.416;24.598;2023-02-16T01:10:05;101520.50;;;3.90;100.00
8286;BME280;4181;43.416;24.598;2023-02-16T01:12:50;101504.44;;;3.97;100.00
8286;BME280;4181;43.416;24.598;2023-02-16T01:15:17;101509.88;;;3.88;100.00
8286;BME280;4181;43.416;24.598;2023-02-16T01:17:43;101518.31;;;3.85;100.00
8286;BME280;4181;43.416;24.598;2023-02-16T01:20:20;101510.69;;;3.89;100.00
8286;BME280;4181;43.416;24.598;2023-02-16T01:22:46;101515.13;;;3.82;100.00
8286;BME280;4181;43.416;24.598;2023-02-16T01:25:13;101512.56;;;3.88;100.00
8286;BME280;4181;43.416;24.598;2023-02-16T01:27:39;101515.47;;;3.71;100.00
8286;BME280;4181;43.416;24.598;2023-02-16T01:30:07;101507.56;;;3.69;100.00
8286;BME280;4181;43.416;24.598;2023-02-16T01:32:33;101492.09;;;3.47;100.00
8286;BME280;4181;43.416;24.598;2023-02-16T01:34:58;101510.63;;;3.58;100.00
8286;BME280;4181;43.416;24.598;2023-02-16T01:37:24;101487.56;;;3.48;100.00
8286;BME280;4181;43.416;24.598;2023-02-16T01:39:50;101494.59;;;3.65;100.00
8286;BME280;4181;43.416;24.598;2023-02-16T01:42:40;101500.78;;;3.81;100.00
8286;BME280;4181;43.416;24.598;2023-02-16T01:45:15;101491.94;;;3.57;100.00
8286;BME280;4181;43.416;24.598;2023-02-16T01:47:52;101501.16;;;3.70;100.00
8286;BME280;4181;43.416;24.598;2023-02-16T01:50:21;101496.41;;;3.72;100.00
8286;BME280;4181;43.416;24.598;2023-02-16T01:55:23;101500.31;;;3.70;100.00
8286;BME280;4181;43.416;24.598;2023-02-16T02:00:29;101507.03;;;3.82;100.00
8286;BME280;4181;43.416;24.598;2023-02-16T02:03:00;101485.75;;;3.79;100.00
8286;BME280;4181;43.416;24.598;2023-02-16T02:05:46;101457.69;;;3.49;100.00
8286;BME280;4181;43.416;24.598;2023-02-16T02:13:28;101483.00;;;3.95;100.00
8286;BME280;4181;43.416;24.598;2023-02-16T02:15:57;101485.47;;;4.05;100.00
8286;BME280;4181;43.416;24.598;2023-02-16T02:18:23;101500.06;;;3.87;100.00
8286;BME280;4181;43.416;24.598;2023-02-16T02:21:40;101495.75;;;3.70;100.00
8286;BME280;4181;43.416;24.598;2023-02-16T02:27:23;101482.34;;;3.46;100.00
8286;BME280;4181;43.416;24.598;2023-02-16T02:41:15;101471.84;;;3.98;100.00
8286;BME280;4181;43.416;24.598;2023-02-16T02:43:55;101476.72;;;4.03;100.00
8286;BME280;4181;43.416;24.598;2023-02-16T02:46:27;101473.75;;;3.89;100.00
8286;BME280;4181;43.416;24.598;2023-02-16T02:48:54;101466.72;;;3.80;100.00
8286;BME280;4181;43.416;24.598;2023-02-16T02:51:20;101473.59;;;3.83;100.00
8286;BME280;4181;43.416;24.598;2023-02-16T02:56:58;101473.94;;;3.33;100.00
8286;BME280;4181;43.416;24.598;2023-02-16T02:59:46;101461.28;;;3.42;100.00
8286;BME280;4181;43.416;24.598;2023-02-16T03:02:34;101475.41;;;3.44;100.00
8286;BME280;4181;43.416;24.598;2023-02-16T03:05:02;101488.75;;;3.45;100.00
8286;BME280;4181;43.416;24.598;2023-02-16T03:07:31;101473.38;;;3.46;100.00
8286;BME280;4181;43.416;24.598;2023-02-16T03:13:00;101479.78;;;3.53;100.00
8286;BME280;4181;43.416;24.598;2023-02-16T03:15:27;101488.56;;;3.55;100.00
8286;BME280;4181;43.416;24.598;2023-02-16T03:17:56;101470.19;;;3.42;100.00
8286;BME280;4181;43.416;24.598;2023-02-16T03:20:42;101472.81;;;3.12;100.00
8286;BME280;4181;43.416;24.598;2023-02-16T03:23:28;101477.97;;;3.29;100.00
8286;BME280;4181;43.416;24.598;2023-02-16T03:26:14;101478.28;;;3.42;100.00
8286;BME280;4181;43.416;24.598;2023-02-16T03:29:00;101478.63;;;3.39;100.00
8286;BME280;4181;43.416;24.598;2023-02-16T03:31:45;101476.78;;;3.40;100.00
8286;BME280;4181;43.416;24.598;2023-02-16T03:34:12;101495.47;;;3.49;100.00
8286;BME280;4181;43.416;24.598;2023-02-16T03:36:40;101503.88;;;3.54;100.00
8286;BME280;4181;43.416;24.598;2023-02-16T03:39:06;101501.38;;;3.53;100.00
8286;BME280;4181;43.416;24.598;2023-02-16T03:41:37;101496.44;;;3.64;100.00
8286;BME280;4181;43.416;24.598;2023-02-16T03:44:03;101502.50;;;3.66;100.00
8286;BME280;4181;43.416;24.598;2023-02-16T03:46:28;101504.69;;;3.71;100.00
8286;BME280;4181;43.416;24.598;2023-02-16T03:48:54;101502.34;;;3.68;100.00
8286;BME280;4181;43.416;24.598;2023-02-16T03:51:19;101498.78;;;3.67;100.00
8286;BME280;4181;43.416;24.598;2023-02-16T03:53:45;101507.91;;;3.66;100.00
8286;BME280;4181;43.416;24.598;2023-02-16T03:56:10;101484.69;;;3.49;100.00
8286;BME280;4181;43.416;24.598;2023-02-16T03:58:36;101484.69;;;3.49;100.00
8286;BME280;4181;43.416;24.598;2023-02-16T04:01:01;101489.47;;;2.99;100.00
8286;BME280;4181;43.416;24.598;2023-02-16T04:03:27;101491.16;;;3.16;100.00
8286;BME280;4181;43.416;24.598;2023-02-16T04:05:52;101473.97;;;3.09;100.00
8286;BME280;4181;43.416;24.598;2023-02-16T04:08:18;101495.84;;;3.22;100.00
8286;BME280;4181;43.416;24.598;2023-02-16T04:10:44;101512.19;;;3.29;100.00
8286;BME280;4181;43.416;24.598;2023-02-16T04:13:10;101500.28;;;3.15;100.00
8286;BME280;4181;43.416;24.598;2023-02-16T04:15:35;101517.78;;;2.71;100.00
8286;BME280;4181;43.416;24.598;2023-02-16T04:18:01;101508.31;;;2.51;100.00
8286;BME280;4181;43.416;24.598;2023-02-16T04:20:31;101499.91;;;2.62;100.00
8286;BME280;4181;43.416;24.598;2023-02-16T04:22:57;101488.47;;;2.68;100.00
8286;BME280;4181;43.416;24.598;2023-02-16T04:25:23;101497.19;;;2.46;100.00
8286;BME280;4181;43.416;24.598;2023-02-16T04:27:50;101491.50;;;2.57;100.00
8286;BME280;4181;43.416;24.598;2023-02-16T04:30:21;101486.13;;;2.81;100.00
8286;BME280;4181;43.416;24.598;2023-02-16T04:32:47;101463.88;;;2.71;100.00
8286;BME280;4181;43.416;24.598;2023-02-16T04:35:13;101490.47;;;2.82;100.00
8286;BME280;4181;43.416;24.598;2023-02-16T04:37:38;101488.59;;;2.34;100.00
8286;BME280;4181;43.416;24.598;2023-02-16T04:40:05;101496.22;;;2.63;100.00
8286;BME280;4181;43.416;24.598;2023-02-16T04:42:31;101484.06;;;2.67;100.00
8286;BME280;4181;43.416;24.598;2023-02-16T04:44:56;101467.94;;;2.75;100.00
8286;BME280;4181;43.416;24.598;2023-02-16T04:47:22;101488.47;;;2.84;100.00
8286;BME280;4181;43.416;24.598;2023-02-16T04:49:50;101490.34;;;2.92;100.00
8286;BME280;4181;43.416;24.598;2023-02-16T04:52:15;101496.22;;;2.79;100.00
8286;BME280;4181;43.416;24.598;2023-02-16T04:54:41;101485.94;;;2.83;100.00
8286;BME280;4181;43.416;24.598;2023-02-16T04:57:08;101498.09;;;2.79;100.00
8286;BME280;4181;43.416;24.598;2023-02-16T04:59:33;101499.59;;;2.65;100.00
8286;BME280;4181;43.416;24.598;2023-02-16T05:01:59;101473.47;;;2.66;100.00
8286;BME280;4181;43.416;24.598;2023-02-16T05:04:24;101474.31;;;2.74;100.00
8286;BME280;4181;43.416;24.598;2023-02-16T05:06:50;101481.41;;;2.83;100.00
8286;BME280;4181;43.416;24.598;2023-02-16T05:09:16;101491.16;;;2.84;100.00
8286;BME280;4181;43.416;24.598;2023-02-16T05:11:41;101488.47;;;2.92;100.00
8286;BME280;4181;43.416;24.598;2023-02-16T05:14:28;101487.63;;;3.08;100.00
8286;BME280;4181;43.416;24.598;2023-02-16T05:17:26;101493.53;;;3.03;100.00
8286;BME280;4181;43.416;24.598;2023-02-16T05:19:59;101515.09;;;2.95;100.00
8286;BME280;4181;43.416;24.598;2023-02-16T05:22:26;101496.72;;;2.83;100.00
8286;BME280;4181;43.416;24.598;2023-02-16T05:24:53;101507.50;;;2.83;100.00
8286;BME280;4181;43.416;24.598;2023-02-16T05:27:26;101499.59;;;2.81;100.00
8286;BME280;4181;43.416;24.598;2023-02-16T05:29:52;101509.19;;;2.76;100.00
8286;BME280;4181;43.416;24.598;2023-02-16T05:32:20;101505.31;;;2.70;100.00
8286;BME280;4181;43.416;24.598;2023-02-16T05:34:46;101507.69;;;2.81;100.00
8286;BME280;4181;43.416;24.598;2023-02-16T05:37:13;101508.19;;;2.93;100.00
8286;BME280;4181;43.416;24.598;2023-02-16T05:39:39;101505.34;;;3.10;100.00
8286;BME280;4181;43.416;24.598;2023-02-16T05:42:05;101509.50;;;3.29;100.00
8286;BME280;4181;43.416;24.598;2023-02-16T05:44:30;101512.50;;;3.50;100.00
8286;BME280;4181;43.416;24.598;2023-02-16T05:46:56;101482.44;;;3.61;100.00
8286;BME280;4181;43.416;24.598;2023-02-16T05:49:21;101505.44;;;3.96;100.00
8286;BME280;4181;43.416;24.598;2023-02-16T05:51:47;101501.28;;;4.24;100.00
8286;BME280;4181;43.416;24.598;2023-02-16T05:54:13;101495.00;;;4.23;100.00
8286;BME280;4181;43.416;24.598;2023-02-16T05:56:43;101497.78;;;4.38;100.00
8286;BME280;4181;43.416;24.598;2023-02-16T05:59:09;101522.78;;;4.40;100.00
8286;BME280;4181;43.416;24.598;2023-02-16T06:01:34;101517.94;;;4.58;100.00
8286;BME280;4181;43.416;24.598;2023-02-16T06:04:03;101505.50;;;4.71;100.00
8286;BME280;4181;43.416;24.598;2023-02-16T06:06:30;101522.63;;;4.86;100.00
8286;BME280;4181;43.416;24.598;2023-02-16T06:08:55;101519.69;;;4.96;100.00
8286;BME280;4181;43.416;24.598;2023-02-16T06:11:21;101514.25;;;4.96;100.00
8286;BME280;4181;43.416;24.598;2023-02-16T06:14:14;101515.81;;;5.13;100.00
8286;BME280;4181;43.416;24.598;2023-02-16T06:16:41;101528.19;;;5.30;100.00
8286;BME280;4181;43.416;24.598;2023-02-16T06:19:08;101519.88;;;5.32;100.00
8286;BME280;4181;43.416;24.598;2023-02-16T06:21:36;101518.72;;;5.63;100.00
8286;BME280;4181;43.416;24.598;2023-02-16T06:24:02;101524.72;;;5.88;100.00
8286;BME280;4181;43.416;24.598;2023-02-16T06:26:28;101537.44;;;5.87;100.00
8286;BME280;4181;43.416;24.598;2023-02-16T06:28:57;101539.97;;;5.89;100.00
8286;BME280;4181;43.416;24.598;2023-02-16T06:31:25;101532.53;;;6.26;100.00
8286;BME280;4181;43.416;24.598;2023-02-16T06:33:51;101532.22;;;6.36;100.00
8286;BME280;4181;43.416;24.598;2023-02-16T06:36:17;101539.53;;;6.21;100.00
8286;BME280;4181;43.416;24.598;2023-02-16T06:38:43;101516.13;;;6.13;100.00
8286;BME280;4181;43.416;24.598;2023-02-16T06:41:09;101533.34;;;6.41;100.00
8286;BME280;4181;43.416;24.598;2023-02-16T06:43:35;101532.88;;;6.74;100.00
8286;BME280;4181;43.416;24.598;2023-02-16T06:46:01;101536.31;;;6.82;100.00
8286;BME280;4181;43.416;24.598;2023-02-16T06:48:26;101527.84;;;7.13;100.00
8286;BME280;4181;43.416;24.598;2023-02-16T06:50:51;101495.69;;;7.37;100.00
8286;BME280;4181;43.416;24.598;2023-02-16T06:53:17;101495.47;;;7.66;100.00
8286;BME280;4181;43.416;24.598;2023-02-16T06:55:43;101504.66;;;8.00;100.00
8286;BME280;4181;43.416;24.598;2023-02-16T06:58:09;101492.63;;;8.22;100.00
8286;BME280;4181;43.416;24.598;2023-02-16T07:00:35;101493.66;;;8.14;100.00
8286;BME280;4181;43.416;24.598;2023-02-16T07:03:01;101489.56;;;8.31;100.00
8286;BME280;4181;43.416;24.598;2023-02-16T07:05:26;101495.28;;;8.49;100.00
8286;BME280;4181;43.416;24.598;2023-02-16T07:07:52;101480.00;;;8.48;100.00
8286;BME280;4181;43.416;24.598;2023-02-16T07:10:18;101494.91;;;8.65;100.00
8286;BME280;4181;43.416;24.598;2023-02-16T07:12:44;101482.19;;;8.85;100.00
8286;BME280;4181;43.416;24.598;2023-02-16T07:15:10;101486.78;;;8.91;100.00
8286;BME280;4181;43.416;24.598;2023-02-16T07:17:36;101478.44;;;9.13;100.00
8286;BME280;4181;43.416;24.598;2023-02-16T07:20:01;101465.03;;;9.11;100.00
8286;BME280;4181;43.416;24.598;2023-02-16T07:22:28;101475.06;;;9.17;100.00
8286;BME280;4181;43.416;24.598;2023-02-16T07:24:54;101470.03;;;9.27;100.00
8286;BME280;4181;43.416;24.598;2023-02-16T07:27:22;101467.28;;;9.47;100.00
8286;BME280;4181;43.416;24.598;2023-02-16T07:29:48;101460.13;;;9.65;100.00
8286;BME280;4181;43.416;24.598;2023-02-16T07:32:13;101458.88;;;9.68;100.00
8286;BME280;4181;43.416;24.598;2023-02-16T07:34:39;101438.69;;;9.88;100.00
8286;BME280;4181;43.416;24.598;2023-02-16T07:37:04;101432.06;;;10.22;100.00
8286;BME280;4181;43.416;24.598;2023-02-16T07:39:30;101436.94;;;10.51;100.00
8286;BME280;4181;43.416;24.598;2023-02-16T07:41:55;101426.84;;;10.52;100.00
8286;BME280;4181;43.416;24.598;2023-02-16T07:44:21;101418.34;;;10.73;100.00
8286;BME280;4181;43.416;24.598;2023-02-16T07:46:46;101422.97;;;11.21;100.00
8286;BME280;4181;43.416;24.598;2023-02-16T07:49:12;101422.31;;;11.44;100.00
8286;BME280;4181;43.416;24.598;2023-02-16T07:51:38;101415.41;;;11.66;100.00
8286;BME280;4181;43.416;24.598;2023-02-16T07:54:05;101411.28;;;11.75;100.00
8286;BME280;4181;43.416;24.598;2023-02-16T07:56:32;101412.56;;;11.91;100.00
8286;BME280;4181;43.416;24.598;2023-02-16T07:58:59;101408.25;;;12.01;100.00
8286;BME280;4181;43.416;24.598;2023-02-16T08:01:26;101405.47;;;12.19;100.00
8286;BME280;4181;43.416;24.598;2023-02-16T08:03:52;101404.06;;;12.28;100.00
8286;BME280;4181;43.416;24.598;2023-02-16T08:06:19;101396.66;;;12.47;100.00
8286;BME280;4181;43.416;24.598;2023-02-16T08:08:44;101391.78;;;12.49;100.00
8286;BME280;4181;43.416;24.598;2023-02-16T08:11:16;101388.94;;;12.55;100.00
8286;BME280;4181;43.416;24.598;2023-02-16T08:13:42;101391.41;;;12.87;100.00
8286;BME280;4181;43.416;24.598;2023-02-16T08:16:14;101368.22;;;13.12;100.00
8286;BME280;4181;43.416;24.598;2023-02-16T08:18:40;101377.88;;;13.38;100.00
8286;BME280;4181;43.416;24.598;2023-02-16T08:21:11;101385.13;;;13.55;100.00
8286;BME280;4181;43.416;24.598;2023-02-16T08:23:59;101374.94;;;13.79;100.00
8286;BME280;4181;43.416;24.598;2023-02-16T08:26:27;101371.09;;;13.91;100.00
8286;BME280;4181;43.416;24.598;2023-02-16T08:28:55;101372.31;;;14.12;100.00
8286;BME280;4181;43.416;24.598;2023-02-16T08:31:24;101353.22;;;14.17;100.00
8286;BME280;4181;43.416;24.598;2023-02-16T08:33:52;101349.88;;;14.27;100.00
8286;BME280;4181;43.416;24.598;2023-02-16T08:36:26;101348.03;;;14.32;100.00
8286;BME280;4181;43.416;24.598;2023-02-16T08:38:54;101330.78;;;14.48;100.00
8286;BME280;4181;43.416;24.598;2023-02-16T08:41:22;101347.94;;;14.72;100.00
8286;BME280;4181;43.416;24.598;2023-02-16T08:43:49;101339.72;;;14.88;100.00
8286;BME280;4181;43.416;24.598;2023-02-16T08:46:16;101355.59;;;14.86;100.00
8286;BME280;4181;43.416;24.598;2023-02-16T08:48:42;101361.25;;;15.13;100.00
8286;BME280;4181;43.416;24.598;2023-02-16T08:51:15;101343.91;;;15.12;100.00
8286;BME280;4181;43.416;24.598;2023-02-16T08:53:42;101349.31;;;15.41;100.00
8286;BME280;4181;43.416;24.598;2023-02-16T08:56:08;101353.88;;;15.52;100.00
8286;BME280;4181;43.416;24.598;2023-02-16T08:58:36;101355.16;;;15.66;100.00
8286;BME280;4181;43.416;24.598;2023-02-16T09:01:08;101351.16;;;15.73;100.00
8286;BME280;4181;43.416;24.598;2023-02-16T09:03:35;101347.28;;;15.96;100.00
8286;BME280;4181;43.416;24.598;2023-02-16T09:06:02;101330.41;;;15.87;100.00
8286;BME280;4181;43.416;24.598;2023-02-16T09:08:29;101352.59;;;16.02;100.00
8286;BME280;4181;43.416;24.598;2023-02-16T09:11:00;101338.13;;;16.12;100.00
8286;BME280;4181;43.416;24.598;2023-02-16T09:13:26;101348.09;;;16.18;100.00
8286;BME280;4181;43.416;24.598;2023-02-16T09:15:52;101347.25;;;16.17;100.00
8286;BME280;4181;43.416;24.598;2023-02-16T09:18:17;101349.88;;;16.29;100.00
8286;BME280;4181;43.416;24.598;2023-02-16T09:20:43;101328.16;;;16.32;100.00
8286;BME280;4181;43.416;24.598;2023-02-16T09:23:09;101338.59;;;16.52;100.00
8286;BME280;4181;43.416;24.598;2023-02-16T09:25:38;101335.44;;;16.70;100.00
8286;BME280;4181;43.416;24.598;2023-02-16T09:28:05;101332.72;;;16.75;100.00
8286;BME280;4181;43.416;24.598;2023-02-16T09:30:31;101336.81;;;16.73;100.00
8286;BME280;4181;43.416;24.598;2023-02-16T09:32:58;101325.75;;;16.68;100.00
8286;BME280;4181;43.416;24.598;2023-02-16T09:35:24;101331.88;;;16.75;100.00
8286;BME280;4181;43.416;24.598;2023-02-16T09:37:50;101309.88;;;16.80;100.00
8286;BME280;4181;43.416;24.598;2023-02-16T09:40:15;101325.19;;;16.97;100.00
8286;BME280;4181;43.416;24.598;2023-02-16T09:45:24;101307.91;;;17.12;100.00
8286;BME280;4181;43.416;24.598;2023-02-16T09:47:51;101315.63;;;17.10;100.00
8286;BME280;4181;43.416;24.598;2023-02-16T09:50:23;101321.06;;;17.00;100.00
8286;BME280;4181;43.416;24.598;2023-02-16T09:53:02;101304.69;;;17.25;100.00
8286;BME280;4181;43.416;24.598;2023-02-16T09:58:57;101304.38;;;17.21;100.00
8286;BME280;4181;43.416;24.598;2023-02-16T10:09:28;101287.19;;;17.09;100.00
8286;BME280;4181;43.416;24.598;2023-02-16T10:17:38;101289.13;;;17.50;100.00
8286;BME280;4181;43.416;24.598;2023-02-16T10:20:13;101292.81;;;17.24;100.00
8286;BME280;4181;43.416;24.598;2023-02-16T10:25:18;101270.63;;;17.51;100.00
8286;BME280;4181;43.416;24.598;2023-02-16T10:27:59;101257.84;;;17.40;100.00
8286;BME280;4181;43.416;24.598;2023-02-16T10:30:29;101260.06;;;17.38;100.00
8286;BME280;4181;43.416;24.598;2023-02-16T10:33:01;101265.56;;;17.38;100.00
8286;BME280;4181;43.416;24.598;2023-02-16T10:35:42;101245.88;;;17.81;100.00
8286;BME280;4181;43.416;24.598;2023-02-16T10:38:31;101254.50;;;17.95;100.00
8286;BME280;4181;43.416;24.598;2023-02-16T10:41:12;101244.00;;;17.97;100.00
8286;BME280;4181;43.416;24.598;2023-02-16T10:43:50;101243.19;;;18.01;100.00
8286;BME280;4181;43.416;24.598;2023-02-16T10:46:57;101237.66;;;18.01;100.00
8286;BME280;4181;43.416;24.598;2023-02-16T10:49:24;101231.28;;;17.81;100.00
8286;BME280;4181;43.416;24.598;2023-02-16T10:51:52;101238.41;;;17.66;100.00
8286;BME280;4181;43.416;24.598;2023-02-16T10:54:22;101234.78;;;17.56;100.00
8286;BME280;4181;43.416;24.598;2023-02-16T10:56:56;101232.63;;;17.78;100.00
8286;BME280;4181;43.416;24.598;2023-02-16T10:59:33;101236.81;;;17.81;100.00
8286;BME280;4181;43.416;24.598;2023-02-16T11:02:14;101227.69;;;17.90;100.00
8286;BME280;4181;43.416;24.598;2023-02-16T11:04:43;101235.38;;;17.73;100.00
8286;BME280;4181;43.416;24.598;2023-02-16T11:07:11;101235.38;;;17.68;100.00
8286;BME280;4181;43.416;24.598;2023-02-16T11:09:40;101221.34;;;17.95;100.00
8286;BME280;4181;43.416;24.598;2023-02-16T11:14:39;101241.50;;;17.23;100.00
8286;BME280;4181;43.416;24.598;2023-02-16T11:17:14;101226.09;;;17.37;100.00
8286;BME280;4181;43.416;24.598;2023-02-16T11:19:49;101217.16;;;17.67;100.00
8286;BME280;4181;43.416;24.598;2023-02-16T11:24:52;101222.91;;;17.50;100.00
8286;BME280;4181;43.416;24.598;2023-02-16T11:27:22;101218.47;;;17.49;100.00
8286;BME280;4181;43.416;24.598;2023-02-16T11:29:48;101228.38;;;16.94;100.00
8286;BME280;4181;43.416;24.598;2023-02-16T11:32:17;101232.69;;;16.80;100.00
8286;BME280;4181;43.416;24.598;2023-02-16T11:34:50;101227.28;;;16.95;100.00
8286;BME280;4181;43.416;24.598;2023-02-16T11:37:32;101222.88;;;16.52;100.00
8286;BME280;4181;43.416;24.598;2023-02-16T11:40:01;101217.19;;;16.69;100.00
8286;BME280;4181;43.416;24.598;2023-02-16T11:42:39;101205.38;;;16.73;100.00
8286;BME280;4181;43.416;24.598;2023-02-16T11:47:52;101193.06;;;16.91;100.00
8286;BME280;4181;43.416;24.598;2023-02-16T11:50:28;101196.31;;;16.83;100.00
8286;BME280;4181;43.416;24.598;2023-02-16T11:55:42;101182.38;;;16.58;100.00
8286;BME280;4181;43.416;24.598;2023-02-16T11:58:28;101167.66;;;16.79;100.00
8286;BME280;4181;43.416;24.598;2023-02-16T12:03:55;101153.53;;;17.27;100.00
8286;BME280;4181;43.416;24.598;2023-02-16T12:06:49;101145.66;;;17.60;100.00
8286;BME280;4181;43.416;24.598;2023-02-16T12:09:45;101145.78;;;17.19;100.00
8286;BME280;4181;43.416;24.598;2023-02-16T12:12:27;101150.66;;;17.02;100.00
8286;BME280;4181;43.416;24.598;2023-02-16T12:21:00;101158.44;;;16.58;100.00
8286;BME280;4181;43.416;24.598;2023-02-16T12:23:42;101142.22;;;16.67;100.00
8286;BME280;4181;43.416;24.598;2023-02-16T12:26:36;101145.56;;;16.69;100.00
8286;BME280;4181;43.416;24.598;2023-02-16T12:29:35;101139.94;;;16.54;100.00
8286;BME280;4181;43.416;24.598;2023-02-16T12:42:53;101123.59;;;16.89;100.00
8286;BME280;4181;43.416;24.598;2023-02-16T12:45:22;101118.41;;;16.97;100.00
8286;BME280;4181;43.416;24.598;2023-02-16T12:50:51;101104.84;;;16.91;100.00
8286;BME280;4181;43.416;24.598;2023-02-16T12:53:23;101107.41;;;17.02;100.00
8286;BME280;4181;43.416;24.598;2023-02-16T12:55:59;101100.50;;;17.05;100.00
8286;BME280;4181;43.416;24.598;2023-02-16T12:58:30;101094.97;;;17.00;100.00
8286;BME280;4181;43.416;24.598;2023-02-16T13:01:19;101093.09;;;17.15;100.00
8286;BME280;4181;43.416;24.598;2023-02-16T13:09:35;101097.63;;;16.80;100.00
8286;BME280;4181;43.416;24.598;2023-02-16T13:12:23;101092.97;;;16.80;100.00
8286;BME280;4181;43.416;24.598;2023-02-16T13:18:04;101083.75;;;16.60;100.00
8286;BME280;4181;43.416;24.598;2023-02-16T13:20:31;101088.66;;;16.48;100.00
8286;BME280;4181;43.416;24.598;2023-02-16T13:23:23;101093.66;;;16.51;100.00
8286;BME280;4181;43.416;24.598;2023-02-16T13:26:25;101081.25;;;16.53;100.00
8286;BME280;4181;43.416;24.598;2023-02-16T13:31:34;101079.06;;;16.55;100.00
8286;BME280;4181;43.416;24.598;2023-02-16T13:39:40;101076.31;;;16.18;100.00
8286;BME280;4181;43.416;24.598;2023-02-16T13:44:59;101068.63;;;16.20;100.00
8286;BME280;4181;43.416;24.598;2023-02-16T13:47:30;101068.91;;;16.24;100.00
8286;BME280;4181;43.416;24.598;2023-02-16T13:50:03;101066.50;;;16.37;100.00
8286;BME280;4181;43.416;24.598;2023-02-16T13:52:33;101068.72;;;16.30;100.00
8286;BME280;4181;43.416;24.598;2023-02-16T13:55:02;101070.78;;;16.13;100.00
8286;BME280;4181;43.416;24.598;2023-02-16T14:00:44;101081.84;;;16.18;100.00
8286;BME280;4181;43.416;24.598;2023-02-16T14:05:50;101068.69;;;16.25;100.00
8286;BME280;4181;43.416;24.598;2023-02-16T14:08:31;101077.38;;;16.12;100.00
8286;BME280;4181;43.416;24.598;2023-02-16T14:10:57;101068.00;;;16.08;100.00
8286;BME280;4181;43.416;24.598;2023-02-16T14:16:09;101056.31;;;15.91;100.00
8286;BME280;4181;43.416;24.598;2023-02-16T14:18:58;101068.16;;;15.92;100.00
8286;BME280;4181;43.416;24.598;2023-02-16T14:21:48;101068.94;;;15.87;100.00
8286;BME280;4181;43.416;24.598;2023-02-16T14:24:32;101062.88;;;15.85;100.00
8286;BME280;4181;43.416;24.598;2023-02-16T14:27:03;101063.47;;;15.92;100.00
8286;BME280;4181;43.416;24.598;2023-02-16T14:29:35;101056.75;;;15.78;100.00
8286;BME280;4181;43.416;24.598;2023-02-16T14:35:04;101064.44;;;15.76;100.00
8286;BME280;4181;43.416;24.598;2023-02-16T14:37:39;101067.50;;;15.48;100.00
8286;BME280;4181;43.416;24.598;2023-02-16T14:40:15;101060.38;;;15.52;100.00
8286;BME280;4181;43.416;24.598;2023-02-16T14:42:53;101057.28;;;15.44;100.00
8286;BME280;4181;43.416;24.598;2023-02-16T14:48:45;101057.56;;;15.42;100.00
8286;BME280;4181;43.416;24.598;2023-02-16T14:57:43;101060.31;;;15.20;100.00
8286;BME280;4181;43.416;24.598;2023-02-16T15:00:24;101056.59;;;15.05;100.00
8286;BME280;4181;43.416;24.598;2023-02-16T15:03:17;101059.22;;;14.95;100.00
8286;BME280;4181;43.416;24.598;2023-02-16T15:05:50;101062.97;;;14.89;100.00
8286;BME280;4181;43.416;24.598;2023-02-16T15:08:20;101062.66;;;14.85;100.00
8286;BME280;4181;43.416;24.598;2023-02-16T15:10:51;101067.03;;;14.81;100.00
8286;BME280;4181;43.416;24.598;2023-02-16T15:13:22;101049.06;;;14.74;100.00
8286;BME280;4181;43.416;24.598;2023-02-16T15:15:51;101060.25;;;14.67;100.00
8286;BME280;4181;43.416;24.598;2023-02-16T15:18:26;101049.00;;;14.47;100.00
8286;BME280;4181;43.416;24.598;2023-02-16T15:20:55;101046.09;;;14.37;100.00